createdAt,value
2022-09-02T00:00:17.900Z,2.13
2022-09-02T00:03:05.069Z,2.85
2022-09-02T00:05:50.814Z,1.83
2022-09-02T00:08:38.165Z,1.10
2022-09-02T00:11:27.637Z,2.08
2022-09-02T00:14:31.983Z,1.52
2022-09-02T00:17:17.478Z,2.00
2022-09-02T00:20:04.458Z,2.53
2022-09-02T00:22:58.280Z,2.20
2022-09-02T00:25:44.974Z,2.65
2022-09-02T00:28:30.833Z,2.00
2022-09-02T00:31:17.741Z,1.50
2022-09-02T00:34:04.433Z,1.15
2022-09-02T00:36:50.177Z,1.60
2022-09-02T00:39:35.595Z,2.00
2022-09-02T00:42:22.790Z,1.58
2022-09-02T00:45:09.747Z,1.60
2022-09-02T00:47:55.619Z,2.15
2022-09-02T00:50:40.978Z,1.75
2022-09-02T00:53:26.375Z,1.80
2022-09-02T00:56:17.204Z,1.92
2022-09-02T00:59:02.854Z,1.83
2022-09-02T01:01:48.861Z,1.92
2022-09-02T01:04:35.446Z,1.60
2022-09-02T01:07:22.389Z,1.88
2022-09-02T01:10:12.621Z,1.83
2022-09-02T01:13:00.377Z,1.90
2022-09-02T01:15:52.002Z,1.80
2022-09-02T01:18:38.870Z,2.05
2022-09-02T01:21:24.753Z,1.95
2022-09-02T01:24:10.081Z,1.10
2022-09-02T01:26:57.619Z,1.75
2022-09-02T01:29:43.718Z,1.58
2022-09-02T01:32:30.533Z,1.77
2022-09-02T01:35:16.797Z,1.63
2022-09-02T01:38:03.133Z,1.55
2022-09-02T01:40:48.892Z,1.63
2022-09-02T01:43:34.814Z,1.73
2022-09-02T01:46:20.524Z,2.45
2022-09-02T01:49:06.342Z,2.58
2022-09-02T01:51:55.270Z,1.90
2022-09-02T01:54:42.115Z,2.00
2022-09-02T01:57:27.945Z,2.20
2022-09-02T02:00:15.360Z,2.17
2022-09-02T02:03:01.154Z,2.15
2022-09-02T02:05:48.826Z,1.67
2022-09-02T02:08:36.338Z,1.67
2022-09-02T02:11:24.866Z,2.63
2022-09-02T02:14:15.359Z,1.73
2022-09-02T02:17:06.409Z,2.00
2022-09-02T02:19:52.176Z,1.70
2022-09-02T02:22:39.363Z,1.98
2022-09-02T02:25:24.896Z,2.03
2022-09-02T02:28:12.645Z,1.80
2022-09-02T02:30:59.955Z,2.10
2022-09-02T02:33:45.422Z,2.08
2022-09-02T02:36:31.938Z,1.52
2022-09-02T02:39:18.383Z,1.83
2022-09-02T02:42:04.964Z,1.77
2022-09-02T02:44:51.581Z,1.98
2022-09-02T02:47:42.480Z,2.42
2022-09-02T02:50:28.198Z,2.00
2022-09-02T02:53:14.276Z,1.90
2022-09-02T02:56:00.906Z,1.80
2022-09-02T02:58:46.752Z,2.15
2022-09-02T03:01:33.436Z,2.03
2022-09-02T03:04:19.321Z,1.98
2022-09-02T03:07:06.486Z,2.50
2022-09-02T03:09:52.255Z,1.88
2022-09-02T03:12:39.821Z,2.28
2022-09-02T03:15:26.592Z,2.22
2022-09-02T03:18:12.498Z,2.13
2022-09-02T03:20:58.177Z,2.05
2022-09-02T03:23:45.175Z,2.10
2022-09-02T03:26:31.409Z,2.08
2022-09-02T03:29:18.274Z,2.10
2022-09-02T03:32:04.866Z,1.80
2022-09-02T03:34:54.559Z,2.45
2022-09-02T03:37:40.134Z,2.10
2022-09-02T03:40:28.478Z,1.83
2022-09-02T03:43:15.157Z,2.00
2022-09-02T03:46:01.158Z,2.38
2022-09-02T03:48:47.272Z,2.38
2022-09-02T03:51:33.327Z,2.35
2022-09-02T03:54:19.463Z,2.08
2022-09-02T03:57:05.589Z,2.10
2022-09-02T03:59:52.003Z,1.92
2022-09-02T04:02:37.847Z,2.20
2022-09-02T04:05:25.023Z,2.08
2022-09-02T04:08:13.578Z,2.10
2022-09-02T04:10:59.342Z,2.50
2022-09-02T04:13:46.648Z,2.00
2022-09-02T04:16:36.219Z,1.98
2022-09-02T04:19:25.510Z,2.15
2022-09-02T04:22:11.354Z,2.00
2022-09-02T04:24:57.460Z,2.05
2022-09-02T04:27:42.769Z,2.30
2022-09-02T04:30:28.649Z,1.77
2022-09-02T04:33:14.853Z,2.10
2022-09-02T04:36:05.566Z,1.95
2022-09-02T04:38:53.450Z,1.70
2022-09-02T04:41:42.674Z,1.90
2022-09-02T04:44:30.549Z,1.80
2022-09-02T04:47:16.635Z,1.75
2022-09-02T04:50:04.156Z,2.13
2022-09-02T04:52:53.127Z,2.53
2022-09-02T04:55:40.687Z,2.22
2022-09-02T04:58:28.575Z,3.10
2022-09-02T05:01:18.841Z,2.67
2022-09-02T05:04:09.756Z,2.75
2022-09-02T05:07:03.890Z,2.15
2022-09-02T05:10:00.225Z,2.45
2022-09-02T05:12:49.406Z,3.00
2022-09-02T05:15:40.899Z,2.80
2022-09-02T05:18:28.091Z,2.78
2022-09-02T05:21:14.352Z,2.67
2022-09-02T05:24:00.535Z,4.38
2022-09-02T05:26:46.541Z,3.55
2022-09-02T05:29:32.842Z,3.05
2022-09-02T05:32:18.822Z,3.00
2022-09-02T05:35:07.053Z,3.50
2022-09-02T05:37:57.497Z,3.90
2022-09-02T05:40:47.501Z,4.57
2022-09-02T05:43:35.806Z,3.08
2022-09-02T05:46:24.360Z,3.22
2022-09-02T05:49:18.468Z,3.05
2022-09-02T05:52:10.383Z,2.42
2022-09-02T05:55:05.637Z,2.63
2022-09-02T05:57:56.507Z,3.83
2022-09-02T06:00:42.464Z,3.00
2022-09-02T06:03:28.530Z,2.75
2022-09-02T06:06:14.975Z,3.03
2022-09-02T06:09:01.396Z,3.10
2022-09-02T06:11:49.628Z,3.53
2022-09-02T06:14:39.454Z,3.42
2022-09-02T06:17:27.383Z,3.42
2022-09-02T06:20:15.445Z,3.00
2022-09-02T06:23:02.476Z,3.20
2022-09-02T06:25:49.321Z,3.67
2022-09-02T06:28:36.845Z,3.40
2022-09-02T06:31:23.714Z,3.25
2022-09-02T06:34:13.952Z,3.55
2022-09-02T06:37:01.251Z,3.55
2022-09-02T06:39:48.372Z,3.83
2022-09-02T06:42:41.063Z,3.30
2022-09-02T06:45:44.128Z,3.15
2022-09-02T06:48:30.001Z,2.97
2022-09-02T06:51:40.283Z,3.00
2022-09-02T06:54:26.325Z,3.20
2022-09-02T06:57:22.715Z,3.30
2022-09-02T07:00:18.342Z,4.22
2022-09-02T07:03:23.779Z,3.70
2022-09-02T07:06:11.607Z,3.92
2022-09-02T07:09:02.045Z,3.90
2022-09-02T07:11:51.195Z,3.90
2022-09-02T07:14:41.643Z,4.18
2022-09-02T07:17:29.079Z,3.42
2022-09-02T07:20:20.221Z,3.92
2022-09-02T07:23:13.625Z,3.72
2022-09-02T07:26:00.192Z,4.10
2022-09-02T07:28:47.392Z,3.17
2022-09-02T07:31:33.301Z,4.10
2022-09-02T07:34:19.866Z,3.65
2022-09-02T07:37:10.900Z,3.70
2022-09-02T07:39:58.761Z,3.92
2022-09-02T07:42:45.303Z,4.50
2022-09-02T07:45:32.066Z,4.07
2022-09-02T07:48:18.897Z,4.10
2022-09-02T07:51:06.598Z,4.07
2022-09-02T07:53:52.638Z,4.20
2022-09-02T07:56:40.825Z,4.18
2022-09-02T07:59:27.168Z,3.83
2022-09-02T08:02:18.124Z,3.92
2022-09-02T08:05:05.158Z,4.05
2022-09-02T08:07:50.747Z,3.55
2022-09-02T08:10:38.330Z,3.55
2022-09-02T08:13:27.034Z,5.20
2022-09-02T08:16:13.554Z,4.32
2022-09-02T08:18:58.816Z,3.95
2022-09-02T08:21:45.401Z,3.58
2022-09-02T08:24:32.776Z,3.70
2022-09-02T08:27:18.715Z,3.70
2022-09-02T08:30:06.651Z,4.05
2022-09-02T08:32:52.304Z,3.85
2022-09-02T08:35:38.639Z,3.85
2022-09-02T08:38:24.187Z,3.83
2022-09-02T08:41:16.966Z,3.53
2022-09-02T08:44:05.261Z,3.80
2022-09-02T08:46:54.526Z,4.07
2022-09-02T08:49:44.380Z,3.42
2022-09-02T08:52:40.882Z,4.03
2022-09-02T08:55:35.569Z,3.80
2022-09-02T08:58:24.781Z,3.78
2022-09-02T09:01:45.917Z,4.20
2022-09-02T09:04:58.248Z,3.88
2022-09-02T09:07:50.008Z,3.40
2022-09-02T09:10:44.453Z,3.47
2022-09-02T09:13:51.592Z,3.72
2022-09-02T09:16:44.859Z,2.83
2022-09-02T09:19:47.263Z,3.38
2022-09-02T09:22:39.531Z,2.53
2022-09-02T09:25:31.195Z,3.70
2022-09-02T09:28:16.906Z,2.55
2022-09-02T09:31:02.524Z,2.95
2022-09-02T09:34:07.651Z,2.53
2022-09-02T09:36:54.821Z,2.75
2022-09-02T09:39:40.132Z,3.15
2022-09-02T09:42:37.779Z,2.60
2022-09-02T09:45:34.497Z,2.95
2022-09-02T09:48:29.735Z,2.15
2022-09-02T09:51:16.346Z,2.25
2022-09-02T09:54:16.673Z,2.63
2022-09-02T09:57:24.782Z,2.70
2022-09-02T10:00:34.396Z,2.22
2022-09-02T10:03:42.651Z,2.35
2022-09-02T10:06:31.182Z,2.55
2022-09-02T10:09:20.147Z,1.98
2022-09-02T10:12:11.790Z,1.95
2022-09-02T10:14:58.184Z,2.20
2022-09-02T10:18:14.819Z,2.28
2022-09-02T10:21:18.058Z,2.55
2022-09-02T10:24:18.574Z,2.58
2022-09-02T10:27:09.199Z,2.33
2022-09-02T10:30:03.634Z,2.05
2022-09-02T10:33:46.455Z,2.25
2022-09-02T10:36:39.630Z,2.45
2022-09-02T10:39:28.167Z,2.28
2022-09-02T10:42:20.026Z,2.63
2022-09-02T10:45:05.684Z,1.92
2022-09-02T10:48:06.545Z,2.75
2022-09-02T10:51:00.632Z,2.92
2022-09-02T10:53:55.268Z,2.33
2022-09-02T10:56:44.637Z,2.15
2022-09-02T10:59:54.245Z,2.58
2022-09-02T11:02:49.050Z,2.35
2022-09-02T11:05:54.768Z,3.10
2022-09-02T11:08:47.686Z,2.00
2022-09-02T11:11:46.245Z,2.40
2022-09-02T11:14:41.113Z,1.90
2022-09-02T11:17:52.755Z,1.88
2022-09-02T11:20:47.601Z,1.13
2022-09-02T11:23:47.260Z,1.33
2022-09-02T11:27:15.745Z,1.40
2022-09-02T11:30:15.444Z,1.35
2022-09-02T11:33:21.601Z,1.10
2022-09-02T11:36:07.767Z,1.30
2022-09-02T11:39:10.763Z,2.28
2022-09-02T11:42:27.191Z,2.00
2022-09-02T11:45:39.387Z,2.03
2022-09-02T11:48:29.590Z,2.28
2022-09-02T11:51:44.962Z,2.33
2022-09-02T11:54:43.329Z,3.25
2022-09-02T11:57:28.666Z,4.15
2022-09-02T12:00:36.866Z,3.53
2022-09-02T12:03:41.181Z,2.80
2022-09-02T12:06:35.476Z,2.95
2022-09-02T12:09:47.143Z,3.08
2022-09-02T12:12:36.830Z,3.10
2022-09-02T12:15:23.578Z,2.58
2022-09-02T12:18:31.199Z,2.83
2022-09-02T12:21:23.264Z,2.85
2022-09-02T12:24:10.976Z,3.80
2022-09-02T12:26:56.651Z,3.28
2022-09-02T12:29:44.875Z,3.22
2022-09-02T12:32:48.986Z,2.53
2022-09-02T12:35:35.037Z,2.05
2022-09-02T12:38:26.138Z,1.98
2022-09-02T12:41:23.233Z,2.30
2022-09-02T12:44:24.305Z,2.83
2022-09-02T12:47:47.603Z,2.13
2022-09-02T12:50:53.737Z,2.28
2022-09-02T12:53:49.192Z,2.30
2022-09-02T12:56:34.834Z,1.90
2022-09-02T12:59:29.545Z,2.10
2022-09-02T13:02:30.593Z,2.50
2022-09-02T13:05:25.794Z,2.63
2022-09-02T13:08:33.679Z,2.95
2022-09-02T13:11:40.625Z,2.90
2022-09-02T13:14:55.236Z,3.42
2022-09-02T13:18:16.608Z,2.30
2022-09-02T13:21:34.438Z,2.70
2022-09-02T13:24:44.554Z,2.78
2022-09-02T13:27:56.506Z,3.38
2022-09-02T13:31:13.259Z,3.90
2022-09-02T13:34:01.302Z,2.75
2022-09-02T13:36:50.176Z,3.40
2022-09-02T13:39:38.444Z,3.55
2022-09-02T13:42:27.556Z,3.45
2022-09-02T13:45:24.603Z,3.45
2022-09-02T13:48:23.057Z,3.50
2022-09-02T13:51:14.064Z,3.28
2022-09-02T13:54:22.248Z,3.30
2022-09-02T13:57:10.353Z,3.20
2022-09-02T13:59:57.534Z,3.35
2022-09-02T14:02:58.089Z,3.95
2022-09-02T14:05:47.735Z,3.85
2022-09-02T14:08:33.275Z,3.92
2022-09-02T14:11:19.488Z,3.47
2022-09-02T14:14:05.171Z,3.72
2022-09-02T14:16:51.546Z,4.15
2022-09-02T14:19:37.106Z,4.50
2022-09-02T14:22:26.824Z,4.88
2022-09-02T14:25:15.000Z,4.47
2022-09-02T14:28:00.880Z,4.45
2022-09-02T14:31:18.636Z,4.50
2022-09-02T14:34:09.893Z,3.90
2022-09-02T14:36:55.240Z,4.43
2022-09-02T14:40:00.194Z,3.90
2022-09-02T14:42:57.318Z,3.92
2022-09-02T14:45:50.420Z,4.25
2022-09-02T14:48:39.161Z,4.47
2022-09-02T14:51:33.010Z,4.03
2022-09-02T14:54:47.446Z,4.47
2022-09-02T14:57:35.776Z,3.47
2022-09-02T15:00:21.726Z,4.28
2022-09-02T15:03:07.626Z,4.13
2022-09-02T15:05:53.875Z,4.25
2022-09-02T15:08:39.661Z,4.18
2022-09-02T15:11:25.494Z,4.15
2022-09-02T15:14:12.917Z,4.18
2022-09-02T15:16:58.530Z,4.03
2022-09-02T15:19:44.114Z,4.20
2022-09-02T15:22:29.488Z,4.47
2022-09-02T15:25:15.750Z,4.43
2022-09-02T15:28:01.753Z,4.30
2022-09-02T15:30:47.056Z,4.13
2022-09-02T15:33:32.457Z,4.07
2022-09-02T15:36:18.708Z,5.30
2022-09-02T15:39:04.620Z,3.53
2022-09-02T15:41:50.363Z,4.40
2022-09-02T15:44:35.804Z,3.78
2022-09-02T15:47:21.381Z,3.97
2022-09-02T15:50:07.078Z,3.40
2022-09-02T15:52:52.537Z,3.47
2022-09-02T15:55:38.169Z,3.63
2022-09-02T15:58:23.341Z,3.85
2022-09-02T16:01:09.371Z,4.05
2022-09-02T16:03:56.137Z,3.28
2022-09-02T16:06:52.373Z,3.63
2022-09-02T16:09:38.346Z,4.35
2022-09-02T16:12:25.327Z,3.47
2022-09-02T16:15:11.481Z,3.70
2022-09-02T16:17:56.976Z,3.38
2022-09-02T16:20:42.235Z,4.10
2022-09-02T16:23:28.266Z,3.97
2022-09-02T16:26:30.422Z,3.67
2022-09-02T16:29:16.964Z,3.67
2022-09-02T16:35:09.399Z,3.30
2022-09-02T16:37:57.526Z,4.10
2022-09-02T16:40:53.624Z,3.13
2022-09-02T16:43:38.980Z,2.72
2022-09-02T16:46:26.480Z,3.10
2022-09-02T16:49:18.485Z,3.55
2022-09-02T16:52:04.071Z,2.70
2022-09-02T16:54:49.838Z,2.80
2022-09-02T16:57:35.548Z,2.58
2022-09-02T17:00:23.605Z,2.50
2022-09-02T17:03:12.936Z,2.72
2022-09-02T17:05:59.267Z,2.47
2022-09-02T17:08:45.156Z,2.38
2022-09-02T17:11:37.615Z,3.13
2022-09-02T17:14:23.080Z,2.45
2022-09-02T17:17:08.638Z,2.42
2022-09-02T17:19:54.299Z,3.30
2022-09-02T17:22:41.516Z,2.50
2022-09-02T17:25:27.394Z,2.92
2022-09-02T17:28:13.169Z,2.50
2022-09-02T17:30:59.105Z,2.28
2022-09-02T17:33:45.583Z,2.25
2022-09-02T17:36:32.965Z,2.13
2022-09-02T17:39:19.686Z,1.95
2022-09-02T17:42:06.584Z,2.22
2022-09-02T17:44:52.649Z,2.40
2022-09-02T17:47:38.574Z,2.53
2022-09-02T17:50:23.926Z,2.25
2022-09-02T17:53:09.205Z,2.58
2022-09-02T17:56:27.000Z,3.22
2022-09-02T17:59:24.512Z,1.80
2022-09-02T18:02:29.592Z,2.30
2022-09-02T18:05:50.328Z,1.70
2022-09-02T18:08:49.328Z,1.65
2022-09-02T18:11:34.918Z,1.85
2022-09-02T18:14:32.895Z,2.17
2022-09-02T18:17:26.347Z,2.80
2022-09-02T18:20:36.142Z,3.92
2022-09-02T18:23:31.147Z,6.15
2022-09-02T18:26:45.570Z,6.15
2022-09-02T18:30:12.226Z,5.18
2022-09-02T18:33:34.044Z,4.53
2022-09-02T18:36:25.595Z,2.90
2022-09-02T18:39:20.099Z,2.92
2022-09-02T18:42:25.216Z,2.17
2022-09-02T18:45:43.288Z,2.67
2022-09-02T18:48:32.883Z,2.97
2022-09-02T18:51:35.105Z,2.45
2022-09-02T18:54:26.781Z,1.85
2022-09-02T18:57:13.435Z,2.05
2022-09-02T19:00:09.240Z,2.13
2022-09-02T19:03:02.464Z,1.73
2022-09-02T19:05:47.816Z,1.55
2022-09-02T19:08:34.399Z,1.60
2022-09-02T19:11:20.063Z,1.77
2022-09-02T19:14:08.718Z,2.25
2022-09-02T19:16:57.781Z,1.85
2022-09-02T19:19:43.563Z,2.00
2022-09-02T19:22:29.721Z,2.30
2022-09-02T19:25:21.855Z,2.60
2022-09-02T19:28:12.624Z,1.73
2022-09-02T19:31:03.571Z,2.15
2022-09-02T19:33:53.314Z,2.28
2022-09-02T19:36:43.590Z,2.72
2022-09-02T19:39:28.996Z,2.53
2022-09-02T19:42:15.169Z,2.88
2022-09-02T19:45:04.240Z,2.40
2022-09-02T19:48:06.560Z,2.35
2022-09-02T19:50:53.144Z,2.05
2022-09-02T19:53:39.646Z,2.33
2022-09-02T19:56:25.286Z,2.40
2022-09-02T19:59:11.284Z,2.70
2022-09-02T20:01:57.545Z,2.38
2022-09-02T20:04:42.909Z,2.53
2022-09-02T20:07:28.423Z,2.50
2022-09-02T20:10:14.034Z,2.30
2022-09-02T20:13:00.611Z,2.30
2022-09-02T20:15:46.271Z,3.05
2022-09-02T20:18:32.504Z,2.60
2022-09-02T20:21:35.851Z,2.83
2022-09-02T20:24:29.444Z,2.45
2022-09-02T20:27:15.159Z,4.13
2022-09-02T20:30:14.588Z,2.70
2022-09-02T20:33:17.585Z,4.65
2022-09-02T20:36:21.318Z,3.42
2022-09-02T20:39:37.816Z,3.25
2022-09-02T20:42:59.688Z,3.80
2022-09-02T20:45:53.259Z,4.43
2022-09-02T20:49:06.427Z,3.88
2022-09-02T20:52:01.556Z,5.00
2022-09-02T20:54:55.653Z,4.30
2022-09-02T20:58:19.509Z,4.60
2022-09-02T21:01:11.931Z,4.40
2022-09-02T21:04:12.882Z,4.47
2022-09-02T21:07:05.665Z,4.53
2022-09-02T21:10:17.006Z,3.88
